createdAt,value
2016-09-21T00:00:34.251Z,0
2016-09-21T00:01:33.477Z,0
2016-09-21T00:02:34.312Z,0
2016-09-21T00:03:32.423Z,0
2016-09-21T00:04:33.661Z,0
2016-09-21T00:05:33.164Z,0
2016-09-21T00:06:32.794Z,0
2016-09-21T00:07:31.933Z,0
2016-09-21T00:08:33.284Z,0
2016-09-21T00:09:32.234Z,0
2016-09-21T00:10:33.375Z,0
2016-09-21T00:11:32.175Z,0
2016-09-21T00:12:33.204Z,0
2016-09-21T00:13:33.350Z,0
2016-09-21T00:14:33.992Z,0
2016-09-21T00:15:35.073Z,0
2016-09-21T00:16:34.126Z,0
2016-09-21T00:17:32.557Z,0
2016-09-21T00:18:33.088Z,0
2016-09-21T00:19:32.760Z,0
2016-09-21T00:20:33.423Z,0
2016-09-21T00:21:33.611Z,0
2016-09-21T00:22:35.217Z,0
2016-09-21T00:23:32.832Z,0
2016-09-21T00:24:32.809Z,0
2016-09-21T00:25:33.018Z,0
2016-09-21T00:26:33.288Z,0
2016-09-21T00:27:34.188Z,0
2016-09-21T00:28:31.937Z,0
2016-09-21T00:29:34.058Z,0
2016-09-21T00:30:34.288Z,0
2016-09-21T00:31:32.793Z,0
2016-09-21T00:32:32.743Z,0
2016-09-21T00:33:33.053Z,0
2016-09-21T00:34:32.203Z,0
2016-09-21T00:35:33.215Z,0
2016-09-21T00:36:33.891Z,0
2016-09-21T00:37:33.325Z,0
2016-09-21T00:38:33.965Z,0
2016-09-21T00:39:34.848Z,0
2016-09-21T00:40:33.815Z,0
2016-09-21T00:41:33.548Z,0
2016-09-21T00:42:33.593Z,0
2016-09-21T00:43:34.135Z,0
2016-09-21T00:44:33.956Z,0
2016-09-21T00:45:33.120Z,0
2016-09-21T00:46:34.811Z,0
2016-09-21T00:47:35.543Z,0
2016-09-21T00:48:33.993Z,0
2016-09-21T00:49:33.918Z,0
2016-09-21T00:50:34.650Z,0
2016-09-21T00:51:33.824Z,0
2016-09-21T00:52:33.857Z,0
2016-09-21T00:53:34.574Z,0
2016-09-21T00:54:33.031Z,0
2016-09-21T00:55:33.512Z,0
2016-09-21T00:56:33.701Z,0
2016-09-21T00:57:33.774Z,0
2016-09-21T00:58:34.059Z,0
2016-09-21T00:59:34.499Z,0
2016-09-21T01:00:33.675Z,0
2016-09-21T01:01:35.900Z,0
2016-09-21T01:02:34.278Z,0
2016-09-21T01:03:34.787Z,0
2016-09-21T01:04:34.676Z,0
2016-09-21T01:05:34.325Z,0
2016-09-21T01:06:35.000Z,0
2016-09-21T01:07:35.559Z,0
2016-09-21T01:08:33.564Z,0
2016-09-21T01:09:33.936Z,0
2016-09-21T01:10:33.603Z,0
2016-09-21T01:11:34.124Z,0
2016-09-21T01:12:35.371Z,0
2016-09-21T01:13:34.442Z,0
2016-09-21T01:14:33.350Z,0
2016-09-21T01:15:35.928Z,0
2016-09-21T01:16:33.643Z,0
2016-09-21T01:17:35.057Z,0
2016-09-21T01:18:33.736Z,0
2016-09-21T01:19:34.078Z,0
2016-09-21T01:20:34.045Z,0
2016-09-21T01:21:35.107Z,0
2016-09-21T01:22:36.992Z,0
2016-09-21T01:23:34.188Z,0
2016-09-21T01:24:34.723Z,0
2016-09-21T01:25:35.256Z,0
2016-09-21T01:26:34.211Z,0
2016-09-21T01:27:34.254Z,0
2016-09-21T01:28:34.722Z,0
2016-09-21T01:29:33.730Z,0
2016-09-21T01:30:33.833Z,0
2016-09-21T01:31:33.379Z,0
2016-09-21T01:32:35.707Z,0
2016-09-21T01:33:34.298Z,0
2016-09-21T01:34:35.004Z,0
2016-09-21T01:35:35.095Z,0
2016-09-21T01:36:34.951Z,0
2016-09-21T01:37:36.100Z,0
2016-09-21T01:38:34.931Z,0
2016-09-21T01:39:36.062Z,0
2016-09-21T01:40:34.869Z,0
2016-09-21T01:41:34.434Z,0
2016-09-21T01:42:34.692Z,0
2016-09-21T01:43:34.141Z,0
2016-09-21T01:44:34.840Z,0
2016-09-21T01:45:34.131Z,0
2016-09-21T01:46:34.272Z,0
2016-09-21T01:47:34.613Z,0
2016-09-21T01:48:34.516Z,0
2016-09-21T01:49:34.186Z,0
2016-09-21T01:50:34.723Z,0
2016-09-21T01:51:36.472Z,0
2016-09-21T01:52:34.125Z,0
2016-09-21T01:53:34.762Z,0
2016-09-21T01:54:35.286Z,0
2016-09-21T01:55:34.118Z,0
2016-09-21T01:56:35.157Z,0
2016-09-21T01:57:34.268Z,0
2016-09-21T01:58:34.767Z,0
2016-09-21T01:59:36.100Z,0
2016-09-21T02:00:36.330Z,0
2016-09-21T02:01:34.014Z,0
2016-09-21T02:02:35.933Z,0
2016-09-21T02:03:35.059Z,0
2016-09-21T02:04:35.845Z,0
2016-09-21T02:05:35.165Z,0
2016-09-21T02:06:35.178Z,0
2016-09-21T02:07:35.608Z,0
2016-09-21T02:08:34.960Z,0
2016-09-21T02:09:36.004Z,0
2016-09-21T02:10:35.520Z,0
2016-09-21T02:11:35.301Z,0
2016-09-21T02:12:34.553Z,0
2016-09-21T02:13:35.345Z,0
2016-09-21T02:14:36.320Z,0
2016-09-21T02:15:36.040Z,0
2016-09-21T02:16:35.240Z,0
2016-09-21T02:17:35.334Z,0
2016-09-21T02:18:36.594Z,0
2016-09-21T02:19:35.781Z,0
2016-09-21T02:20:36.082Z,0
2016-09-21T02:21:35.602Z,0
2016-09-21T02:22:35.569Z,0
2016-09-21T02:23:35.187Z,0
2016-09-21T02:24:37.806Z,0
2016-09-21T02:25:34.369Z,0
2016-09-21T02:26:35.914Z,0
2016-09-21T02:27:35.707Z,0
2016-09-21T02:28:35.569Z,0
2016-09-21T02:29:36.312Z,0
2016-09-21T02:30:36.299Z,0
2016-09-21T02:31:35.969Z,0
2016-09-21T02:32:36.202Z,0
2016-09-21T02:33:35.509Z,0
2016-09-21T02:34:37.115Z,0
2016-09-21T02:35:35.625Z,0
2016-09-21T02:36:35.440Z,0
2016-09-21T02:37:35.240Z,0
2016-09-21T02:38:35.170Z,0
2016-09-21T02:39:36.829Z,0
2016-09-21T02:40:36.027Z,0
2016-09-21T02:41:36.136Z,0
2016-09-21T02:42:36.276Z,0
2016-09-21T02:43:36.868Z,0
2016-09-21T02:44:41.581Z,0
2016-09-21T02:45:35.522Z,0
2016-09-21T02:46:36.189Z,0
2016-09-21T02:47:36.524Z,0
2016-09-21T02:48:35.903Z,0
2016-09-21T02:49:38.158Z,0
2016-09-21T02:50:37.361Z,0
2016-09-21T02:51:35.959Z,0
2016-09-21T02:52:36.667Z,0
2016-09-21T02:53:37.099Z,0
2016-09-21T02:54:35.981Z,0
2016-09-21T02:55:36.290Z,0
2016-09-21T02:56:36.504Z,0
2016-09-21T02:57:36.441Z,0
2016-09-21T02:58:37.399Z,0
2016-09-21T02:59:36.739Z,0
2016-09-21T03:00:35.796Z,0
2016-09-21T03:01:35.099Z,0
2016-09-21T03:02:36.961Z,0
2016-09-21T03:03:36.419Z,0
2016-09-21T03:04:35.991Z,0
2016-09-21T03:05:36.058Z,0
2016-09-21T03:06:35.989Z,0
2016-09-21T03:07:37.144Z,0
2016-09-21T03:08:37.928Z,0
2016-09-21T03:09:36.559Z,0
2016-09-21T03:10:36.182Z,0
2016-09-21T03:11:38.048Z,0
2016-09-21T03:12:35.996Z,0
2016-09-21T03:13:38.845Z,0
2016-09-21T03:14:36.318Z,0
2016-09-21T03:15:37.866Z,0
2016-09-21T03:16:37.454Z,0
2016-09-21T03:17:36.188Z,0
2016-09-21T03:18:36.391Z,0
2016-09-21T03:19:36.919Z,0
2016-09-21T03:20:36.378Z,0
2016-09-21T03:21:35.850Z,0
2016-09-21T03:22:35.367Z,0
2016-09-21T03:23:36.411Z,0
2016-09-21T03:24:37.163Z,0
2016-09-21T03:25:37.043Z,0
2016-09-21T03:26:36.502Z,0
2016-09-21T03:27:37.800Z,0
2016-09-21T03:28:35.722Z,0
2016-09-21T03:29:36.934Z,0
2016-09-21T03:30:36.212Z,0
2016-09-21T03:31:37.428Z,0
2016-09-21T03:32:36.231Z,0
2016-09-21T03:33:38.136Z,0
2016-09-21T03:34:39.860Z,0
2016-09-21T03:35:37.318Z,0
2016-09-21T03:36:36.052Z,0
2016-09-21T03:37:39.191Z,0
2016-09-21T03:38:36.618Z,0
2016-09-21T03:39:37.287Z,0
2016-09-21T03:40:37.624Z,0
2016-09-21T03:41:36.780Z,0
2016-09-21T03:42:37.208Z,0
2016-09-21T03:43:37.178Z,0
2016-09-21T03:44:37.980Z,0
2016-09-21T03:45:37.466Z,0
2016-09-21T03:46:37.067Z,0
2016-09-21T03:47:36.765Z,0
2016-09-21T03:48:36.528Z,0
2016-09-21T03:49:38.300Z,0
2016-09-21T03:50:37.599Z,0
2016-09-21T03:51:36.689Z,0
2016-09-21T03:52:38.211Z,0
2016-09-21T03:53:37.997Z,0
2016-09-21T03:54:36.931Z,0
2016-09-21T03:55:37.107Z,0
2016-09-21T03:56:37.648Z,0
2016-09-21T03:57:38.416Z,0
2016-09-21T03:58:36.596Z,0
2016-09-21T03:59:37.937Z,0
2016-09-21T04:00:37.369Z,0
2016-09-21T04:01:38.657Z,0
2016-09-21T04:02:37.503Z,0
2016-09-21T04:03:37.790Z,0
2016-09-21T04:04:37.710Z,0
2016-09-21T04:05:37.999Z,0
2016-09-21T04:06:36.519Z,0
2016-09-21T04:07:37.841Z,0
2016-09-21T04:08:38.447Z,0
2016-09-21T04:09:38.433Z,0
2016-09-21T04:10:37.919Z,0
2016-09-21T04:11:36.273Z,0
2016-09-21T04:12:38.156Z,0
2016-09-21T04:13:38.202Z,0
2016-09-21T04:14:38.190Z,0
2016-09-21T04:15:37.762Z,0
2016-09-21T04:16:38.582Z,0
2016-09-21T04:17:39.309Z,0
2016-09-21T04:18:39.070Z,0
2016-09-21T04:19:37.651Z,0
2016-09-21T04:20:40.718Z,0
2016-09-21T04:21:38.946Z,0
2016-09-21T04:22:38.496Z,0
2016-09-21T04:23:39.165Z,0
2016-09-21T04:24:40.706Z,0
2016-09-21T04:25:37.881Z,0
2016-09-21T04:26:38.735Z,0
2016-09-21T04:27:38.141Z,0
2016-09-21T04:28:39.789Z,0
2016-09-21T04:29:39.490Z,0
2016-09-21T04:30:37.709Z,0
2016-09-21T04:31:37.452Z,0
2016-09-21T04:32:39.070Z,4
2016-09-21T04:33:39.506Z,4
2016-09-21T04:34:38.176Z,0
2016-09-21T04:35:40.080Z,4
2016-09-21T04:36:37.520Z,4
2016-09-21T04:37:38.692Z,4
2016-09-21T04:38:38.785Z,4
2016-09-21T04:39:41.254Z,4
2016-09-21T04:40:39.325Z,8
2016-09-21T04:41:39.904Z,8
2016-09-21T04:42:39.167Z,12
2016-09-21T04:43:40.042Z,8
2016-09-21T04:44:39.397Z,16
2016-09-21T04:45:38.338Z,16
2016-09-21T04:46:40.263Z,20
2016-09-21T04:47:40.010Z,24
2016-09-21T04:48:38.019Z,28
2016-09-21T04:49:39.891Z,36
2016-09-21T04:50:38.475Z,44
2016-09-21T04:51:38.888Z,52
2016-09-21T04:52:40.603Z,60
2016-09-21T04:53:38.329Z,68
2016-09-21T04:54:39.084Z,84
2016-09-21T04:55:40.717Z,96
2016-09-21T04:56:39.212Z,112
2016-09-21T04:57:38.538Z,128
2016-09-21T04:58:39.262Z,148
2016-09-21T04:59:40.366Z,172
2016-09-21T05:00:39.260Z,196
2016-09-21T05:01:41.305Z,216
2016-09-21T05:02:38.514Z,240
2016-09-21T05:03:41.174Z,264
2016-09-21T05:04:38.509Z,276
2016-09-21T05:05:39.594Z,296
2016-09-21T05:06:39.597Z,320
2016-09-21T05:07:40.198Z,348
2016-09-21T05:08:40.400Z,380
2016-09-21T05:09:38.836Z,416
2016-09-21T05:10:39.675Z,460
2016-09-21T05:11:38.230Z,504
2016-09-21T05:12:37.949Z,548
2016-09-21T05:13:38.924Z,596
2016-09-21T05:14:39.867Z,648
2016-09-21T05:15:39.474Z,700
2016-09-21T05:16:39.978Z,748
2016-09-21T05:17:38.755Z,804
2016-09-21T05:18:38.836Z,856
2016-09-21T05:19:40.494Z,912
2016-09-21T05:20:38.082Z,968
2016-09-21T05:21:38.758Z,1024
2016-09-21T05:22:39.499Z,1084
2016-09-21T05:23:39.343Z,1144
2016-09-21T05:24:39.785Z,1204
2016-09-21T05:25:40.808Z,1264
2016-09-21T05:26:38.375Z,1324
2016-09-21T05:27:38.871Z,1384
2016-09-21T05:28:40.056Z,1440
2016-09-21T05:29:39.086Z,1500
2016-09-21T05:30:39.618Z,1564
2016-09-21T05:31:39.047Z,1616
2016-09-21T05:32:38.702Z,1676
2016-09-21T05:33:38.419Z,1736
2016-09-21T05:34:39.665Z,1800
2016-09-21T05:35:38.549Z,1860
2016-09-21T05:36:40.902Z,1920
2016-09-21T05:37:38.743Z,1984
2016-09-21T05:38:39.754Z,2048
2016-09-21T05:39:40.556Z,2108
2016-09-21T05:40:40.659Z,2164
2016-09-21T05:41:38.680Z,2220
2016-09-21T05:42:40.460Z,2276
2016-09-21T05:43:38.441Z,2332
2016-09-21T05:44:39.494Z,2384
2016-09-21T05:45:38.454Z,2440
2016-09-21T05:46:40.433Z,2492
2016-09-21T05:47:39.194Z,2540
2016-09-21T05:48:40.611Z,2588
2016-09-21T05:49:38.610Z,2632
2016-09-21T05:50:40.996Z,2680
2016-09-21T05:51:39.325Z,2720
2016-09-21T05:52:38.915Z,2772
2016-09-21T05:53:39.515Z,2820
2016-09-21T05:54:41.343Z,2872
2016-09-21T05:55:38.525Z,2916
2016-09-21T05:56:40.788Z,2964
2016-09-21T05:57:38.556Z,3020
2016-09-21T05:58:40.666Z,3084
2016-09-21T05:59:39.511Z,3140
2016-09-21T06:00:40.718Z,3196
2016-09-21T06:01:39.262Z,3252
2016-09-21T06:02:39.514Z,3300
2016-09-21T06:03:40.318Z,3348
2016-09-21T06:04:40.309Z,3392
2016-09-21T06:05:40.056Z,3436
2016-09-21T06:06:41.056Z,3492
2016-09-21T06:07:39.811Z,3532
2016-09-21T06:08:40.689Z,3580
2016-09-21T06:09:40.394Z,3620
2016-09-21T06:10:40.400Z,3660
2016-09-21T06:11:39.752Z,3704
2016-09-21T06:12:39.416Z,3744
2016-09-21T06:13:39.165Z,3780
2016-09-21T06:14:41.706Z,3832
2016-09-21T06:15:40.831Z,3872
2016-09-21T06:16:39.957Z,3908
2016-09-21T06:17:42.459Z,3940
2016-09-21T06:18:40.312Z,3968
2016-09-21T06:19:42.346Z,4056
2016-09-21T06:20:39.545Z,4104
2016-09-21T06:21:42.224Z,4180
2016-09-21T06:22:41.457Z,4228
2016-09-21T06:23:41.826Z,4360
2016-09-21T06:24:41.285Z,4472
2016-09-21T06:25:41.518Z,4320
2016-09-21T06:26:41.153Z,4336
2016-09-21T06:27:40.425Z,4368
2016-09-21T06:28:39.798Z,4332
2016-09-21T06:29:40.745Z,4352
2016-09-21T06:30:39.669Z,4360
2016-09-21T06:31:38.942Z,4388
2016-09-21T06:32:40.627Z,4412
2016-09-21T06:33:43.277Z,4436
2016-09-21T06:34:42.668Z,4464
2016-09-21T06:35:41.754Z,4528
2016-09-21T06:36:42.688Z,4616
2016-09-21T06:37:42.480Z,4692
2016-09-21T06:38:42.085Z,4776
2016-09-21T06:39:40.938Z,4812
2016-09-21T06:40:39.358Z,4828
2016-09-21T06:41:43.099Z,4876
2016-09-21T06:42:40.736Z,4920
2016-09-21T06:43:41.709Z,4944
2016-09-21T06:44:42.057Z,4952
2016-09-21T06:45:41.250Z,4952
2016-09-21T06:46:42.543Z,5048
2016-09-21T06:47:39.707Z,5124
2016-09-21T06:48:41.743Z,5196
2016-09-21T06:49:41.115Z,5376
2016-09-21T06:50:42.108Z,5408
2016-09-21T06:51:41.956Z,5448
2016-09-21T06:52:40.168Z,5988
2016-09-21T06:53:42.767Z,7136
2016-09-21T06:54:41.743Z,7976
2016-09-21T06:55:39.928Z,8900
2016-09-21T06:56:41.739Z,9208
2016-09-21T06:57:41.475Z,10024
2016-09-21T06:58:40.443Z,10564
2016-09-21T06:59:42.903Z,10696
2016-09-21T07:00:43.068Z,10864
2016-09-21T07:01:40.725Z,11048
2016-09-21T07:02:41.650Z,11052
2016-09-21T07:03:42.141Z,10712
2016-09-21T07:04:40.773Z,11120
2016-09-21T07:05:41.023Z,10820
2016-09-21T07:06:41.409Z,10156
2016-09-21T07:07:42.715Z,11064
2016-09-21T07:08:42.404Z,11528
2016-09-21T07:09:42.767Z,11568
2016-09-21T07:10:42.515Z,11644
2016-09-21T07:11:42.555Z,11612
2016-09-21T07:12:40.356Z,11492
2016-09-21T07:13:40.734Z,11128
2016-09-21T07:14:41.212Z,10632
2016-09-21T07:15:41.470Z,11268
2016-09-21T07:16:41.712Z,11284
2016-09-21T07:17:42.656Z,10788
2016-09-21T07:18:43.432Z,10804
2016-09-21T07:19:42.739Z,10496
2016-09-21T07:20:41.125Z,10160
2016-09-21T07:21:42.010Z,11608
2016-09-21T07:22:40.633Z,11832
2016-09-21T07:23:40.859Z,11912
2016-09-21T07:24:41.635Z,12800
2016-09-21T07:25:42.711Z,15268
2016-09-21T07:26:42.205Z,18208
2016-09-21T07:27:42.000Z,19776
2016-09-21T07:28:41.996Z,20704
2016-09-21T07:29:40.787Z,22304
2016-09-21T07:30:42.495Z,23904
2016-09-21T07:31:40.502Z,23616
2016-09-21T07:32:42.529Z,26464
2016-09-21T07:33:42.242Z,26848
2016-09-21T07:34:40.572Z,24896
2016-09-21T07:35:41.673Z,26080
2016-09-21T07:36:41.092Z,30624
2016-09-21T07:37:42.133Z,29984
2016-09-21T07:38:43.958Z,26048
2016-09-21T07:39:42.438Z,26272
2016-09-21T07:40:43.473Z,25376
2016-09-21T07:41:42.506Z,24992
2016-09-21T07:42:41.404Z,26208
2016-09-21T07:43:41.937Z,27712
2016-09-21T07:44:42.152Z,28960
2016-09-21T07:45:42.003Z,29344
2016-09-21T07:46:43.149Z,29440
2016-09-21T07:47:42.397Z,29024
2016-09-21T07:48:40.760Z,29888
2016-09-21T07:49:41.048Z,31136
2016-09-21T07:50:43.342Z,30976
2016-09-21T07:51:41.911Z,31968
2016-09-21T07:52:42.871Z,31104
2016-09-21T07:53:43.291Z,31616
2016-09-21T07:54:42.132Z,32128
2016-09-21T07:55:41.695Z,32544
2016-09-21T07:56:42.609Z,33056
2016-09-21T07:57:42.218Z,31200
2016-09-21T07:58:42.496Z,31744
2016-09-21T07:59:42.026Z,32864
2016-09-21T08:00:43.812Z,33184
2016-09-21T08:01:43.978Z,32448
2016-09-21T08:02:42.191Z,31040
2016-09-21T08:03:42.814Z,30464
2016-09-21T08:04:42.565Z,31520
2016-09-21T08:05:43.063Z,32224
2016-09-21T08:06:42.340Z,31840
2016-09-21T08:07:41.272Z,32000
2016-09-21T08:08:43.977Z,31968
2016-09-21T08:09:42.690Z,33024
2016-09-21T08:10:42.124Z,33216
2016-09-21T08:11:42.725Z,32192
2016-09-21T08:12:42.325Z,33120
2016-09-21T08:13:42.862Z,32704
2016-09-21T08:14:42.756Z,33248
2016-09-21T08:15:43.391Z,33024
2016-09-21T08:16:44.546Z,33760
2016-09-21T08:17:42.966Z,33760
2016-09-21T08:18:42.256Z,33568
2016-09-21T08:19:42.209Z,32096
2016-09-21T08:20:41.920Z,31744
2016-09-21T08:21:43.195Z,30592
2016-09-21T08:22:41.848Z,29536
2016-09-21T08:23:42.745Z,32032
2016-09-21T08:24:43.399Z,36320
2016-09-21T08:25:43.223Z,35456
2016-09-21T08:26:44.185Z,36608
2016-09-21T08:27:44.119Z,37184
2016-09-21T08:28:43.050Z,35072
2016-09-21T08:29:43.017Z,34496
2016-09-21T08:30:42.824Z,35296
2016-09-21T08:31:42.914Z,36352
2016-09-21T08:32:44.483Z,36064
2016-09-21T08:33:44.096Z,36896
2016-09-21T08:34:42.764Z,36512
2016-09-21T08:35:43.156Z,37408
2016-09-21T08:36:45.366Z,40224
2016-09-21T08:37:42.879Z,41280
2016-09-21T08:38:42.712Z,39328
2016-09-21T08:39:43.919Z,35904
2016-09-21T08:40:44.558Z,37248
2016-09-21T08:41:42.412Z,34592
2016-09-21T08:42:43.098Z,33344
2016-09-21T08:43:42.778Z,32672
2016-09-21T08:44:43.265Z,32320
2016-09-21T08:45:42.880Z,35104
2016-09-21T08:46:44.570Z,42272
2016-09-21T08:47:42.475Z,45440
2016-09-21T08:48:43.496Z,46336
2016-09-21T08:49:43.421Z,46752
2016-09-21T08:50:43.188Z,47168
2016-09-21T08:51:42.871Z,46816
2016-09-21T08:52:42.345Z,46976
2016-09-21T08:53:43.272Z,43968
2016-09-21T08:54:42.986Z,41408
2016-09-21T08:55:42.697Z,44256
2016-09-21T08:56:44.233Z,47744
2016-09-21T08:57:45.756Z,44768
2016-09-21T08:58:43.450Z,44800
2016-09-21T08:59:42.140Z,46624
2016-09-21T09:00:42.941Z,41472
2016-09-21T09:01:43.088Z,40128
2016-09-21T09:02:42.806Z,42848
2016-09-21T09:03:43.376Z,40960
2016-09-21T09:04:42.850Z,39168
2016-09-21T09:05:43.039Z,37216
2016-09-21T09:06:43.281Z,35392
2016-09-21T09:07:44.241Z,33984
2016-09-21T09:08:42.751Z,31456
2016-09-21T09:09:44.461Z,31040
2016-09-21T09:10:42.816Z,30880
2016-09-21T09:11:43.848Z,30752
2016-09-21T09:12:42.918Z,29440
2016-09-21T09:13:44.957Z,27936
2016-09-21T09:14:43.683Z,27456
2016-09-21T09:15:43.755Z,28576
2016-09-21T09:16:42.902Z,25312
2016-09-21T09:17:43.553Z,24768
2016-09-21T09:18:44.865Z,23840
2016-09-21T09:19:45.142Z,20544
2016-09-21T09:20:43.556Z,19264
2016-09-21T09:21:44.392Z,18272
2016-09-21T09:22:45.026Z,17536
2016-09-21T09:23:44.501Z,17280
2016-09-21T09:24:46.671Z,17076
2016-09-21T09:25:43.814Z,17696
2016-09-21T09:26:44.347Z,17568
2016-09-21T09:27:43.837Z,18496
2016-09-21T09:28:44.688Z,18944
2016-09-21T09:29:46.100Z,19968
2016-09-21T09:30:43.479Z,20000
2016-09-21T09:31:45.840Z,21792
2016-09-21T09:32:45.058Z,23200
2016-09-21T09:33:43.305Z,24416
2016-09-21T09:34:43.456Z,25888
2016-09-21T09:35:45.410Z,25920
2016-09-21T09:36:45.959Z,28992
2016-09-21T09:37:44.143Z,28480
2016-09-21T09:38:45.230Z,26752
2016-09-21T09:39:44.752Z,26816
2016-09-21T09:40:44.836Z,29248
2016-09-21T09:41:46.400Z,27360
2016-09-21T09:42:46.096Z,25280
2016-09-21T09:43:44.109Z,24832
2016-09-21T09:44:45.665Z,24576
2016-09-21T09:45:44.272Z,26336
2016-09-21T09:46:45.237Z,26048
2016-09-21T09:47:44.053Z,26816
2016-09-21T09:48:43.839Z,27328
2016-09-21T09:49:45.413Z,29152
2016-09-21T09:50:44.482Z,29184
2016-09-21T09:51:44.346Z,30208
2016-09-21T09:52:45.707Z,31456
2016-09-21T09:53:45.158Z,30880
2016-09-21T09:54:45.688Z,35104
2016-09-21T09:55:45.179Z,31616
2016-09-21T09:56:45.210Z,30144
2016-09-21T09:57:45.935Z,29984
2016-09-21T09:58:45.188Z,29664
2016-09-21T09:59:44.123Z,30112
2016-09-21T10:00:45.253Z,29984
2016-09-21T10:01:43.816Z,29440
2016-09-21T10:02:44.917Z,28480
2016-09-21T10:03:44.713Z,26848
2016-09-21T10:05:13.470Z,26304
2016-09-21T10:05:44.592Z,26208
2016-09-21T10:06:47.100Z,26112
2016-09-21T10:07:47.722Z,26144
2016-09-21T10:08:45.172Z,26176
2016-09-21T10:09:45.670Z,26368
2016-09-21T10:10:45.599Z,26720
2016-09-21T10:11:45.350Z,27008
2016-09-21T10:12:45.006Z,27296
2016-09-21T10:13:46.857Z,27456
2016-09-21T10:14:46.837Z,27616
2016-09-21T10:15:46.167Z,27840
2016-09-21T10:16:45.720Z,28032
2016-09-21T10:17:46.516Z,28384
2016-09-21T10:18:46.119Z,28736
2016-09-21T10:19:47.725Z,29280
2016-09-21T10:20:45.553Z,29504
2016-09-21T10:21:45.476Z,29248
2016-09-21T10:22:45.929Z,29312
2016-09-21T10:23:45.697Z,29472
2016-09-21T10:24:46.502Z,29792
2016-09-21T10:25:46.830Z,30272
2016-09-21T10:26:47.014Z,31488
2016-09-21T10:27:46.748Z,30784
2016-09-21T10:28:46.873Z,30304
2016-09-21T10:38:02.132Z,29760
2016-09-21T10:38:47.949Z,30016
2016-09-21T10:39:47.880Z,30496
2016-09-21T10:40:48.076Z,31072
2016-09-21T10:41:49.279Z,30752
2016-09-21T10:42:47.258Z,30816
2016-09-21T10:43:47.651Z,31552
2016-09-21T10:44:47.774Z,31648
2016-09-21T10:45:47.097Z,30752
2016-09-21T10:46:48.221Z,31648
2016-09-21T10:47:47.898Z,30560
2016-09-21T10:48:48.222Z,30688
2016-09-21T10:49:47.909Z,30208
2016-09-21T10:50:48.383Z,30656
2016-09-21T10:51:47.772Z,31936
2016-09-21T10:52:48.607Z,28992
2016-09-21T10:53:49.166Z,27968
2016-09-21T10:54:48.465Z,26816
2016-09-21T10:55:50.158Z,25632
2016-09-21T10:56:48.066Z,24960
2016-09-21T10:57:48.674Z,23936
2016-09-21T10:58:48.501Z,25920
2016-09-21T10:59:48.132Z,22880
2016-09-21T11:00:49.413Z,23680
2016-09-21T11:01:48.471Z,23072
2016-09-21T11:02:48.070Z,25248
2016-09-21T11:03:48.437Z,23200
2016-09-21T11:04:48.745Z,24448
2016-09-21T11:05:47.983Z,25216
2016-09-21T11:06:47.995Z,24608
2016-09-21T11:07:47.744Z,23904
2016-09-21T11:08:47.902Z,25152
2016-09-21T11:09:47.922Z,23072
2016-09-21T11:10:48.703Z,22976
2016-09-21T11:11:49.582Z,23712
2016-09-21T11:12:48.442Z,22912
2016-09-21T11:13:48.236Z,22400
2016-09-21T11:14:49.203Z,23008
2016-09-21T11:15:48.152Z,25152
2016-09-21T11:16:48.546Z,27008
2016-09-21T11:17:48.158Z,23648
2016-09-21T11:18:48.620Z,24992
2016-09-21T11:19:48.503Z,22560
2016-09-21T11:20:47.773Z,22016
2016-09-21T11:21:47.892Z,23168
2016-09-21T11:22:49.576Z,28000
2016-09-21T11:23:49.458Z,26048
2016-09-21T11:24:48.549Z,31136
2016-09-21T11:25:48.612Z,31072
2016-09-21T11:26:50.443Z,28960
2016-09-21T11:27:48.193Z,33088
2016-09-21T11:28:49.593Z,29408
2016-09-21T11:29:48.612Z,30016
2016-09-21T11:30:48.499Z,29056
2016-09-21T11:31:49.473Z,28864
2016-09-21T11:32:49.187Z,29760
2016-09-21T11:33:49.535Z,29024
2016-09-21T11:34:49.162Z,25792
2016-09-21T11:35:48.119Z,25824
2016-09-21T11:36:49.338Z,25408
2016-09-21T11:37:49.990Z,22880
2016-09-21T11:38:49.667Z,24000
2016-09-21T11:39:49.417Z,23584
2016-09-21T11:40:48.200Z,21408
2016-09-21T11:41:48.608Z,20768
2016-09-21T11:42:50.419Z,21312
2016-09-21T11:43:51.113Z,20096
2016-09-21T11:44:50.018Z,21184
2016-09-21T11:45:49.775Z,20096
2016-09-21T11:46:49.794Z,18400
2016-09-21T11:47:50.150Z,18048
2016-09-21T11:48:49.535Z,17376
2016-09-21T11:49:49.937Z,17632
2016-09-21T11:50:49.123Z,17152
2016-09-21T11:51:49.924Z,19424
2016-09-21T11:52:49.871Z,19328
2016-09-21T11:53:49.450Z,17536
2016-09-21T11:54:48.837Z,15812
2016-09-21T11:55:49.491Z,15136
2016-09-21T11:56:49.408Z,15896
2016-09-21T11:57:49.217Z,13512
2016-09-21T11:58:49.529Z,12876
2016-09-21T11:59:49.815Z,12548
2016-09-21T12:00:50.125Z,13480
2016-09-21T12:01:49.126Z,11516
2016-09-21T12:02:49.862Z,11672
2016-09-21T12:03:50.952Z,11144
2016-09-21T12:04:49.683Z,11504
2016-09-21T12:05:50.257Z,12016
2016-09-21T12:06:49.936Z,11792
2016-09-21T12:07:49.895Z,11676
2016-09-21T12:08:50.755Z,11716
2016-09-21T12:09:50.133Z,11664
2016-09-21T12:10:50.423Z,11652
2016-09-21T12:11:49.717Z,11604
2016-09-21T12:12:51.056Z,11548
2016-09-21T12:13:49.925Z,11516
2016-09-21T12:14:50.294Z,11508
2016-09-21T12:15:50.208Z,11512
2016-09-21T12:16:50.848Z,11536
2016-09-21T12:17:49.507Z,11556
2016-09-21T12:18:50.068Z,11616
2016-09-21T12:19:50.251Z,11616
2016-09-21T12:20:49.811Z,11624
2016-09-21T12:21:51.192Z,11716
2016-09-21T12:22:50.638Z,11728
2016-09-21T12:23:50.999Z,11716
2016-09-21T12:24:51.107Z,11636
2016-09-21T12:25:50.399Z,11620
2016-09-21T12:26:51.561Z,11624
2016-09-21T12:27:50.343Z,11676
2016-09-21T12:28:50.157Z,11748
2016-09-21T12:29:50.475Z,11832
2016-09-21T12:30:50.561Z,11904
2016-09-21T12:31:50.665Z,11964
2016-09-21T12:32:50.887Z,11972
2016-09-21T12:33:51.090Z,11988
2016-09-21T12:34:50.900Z,12092
2016-09-21T12:35:50.656Z,12148
2016-09-21T12:36:52.943Z,11984
2016-09-21T12:37:51.482Z,11896
2016-09-21T12:38:50.062Z,11860
2016-09-21T12:39:51.528Z,11928
2016-09-21T12:40:51.395Z,12036
2016-09-21T12:41:50.930Z,12068
2016-09-21T12:42:52.518Z,12124
2016-09-21T12:43:51.740Z,12116
2016-09-21T12:44:51.542Z,12196
2016-09-21T12:45:51.697Z,12156
2016-09-21T12:46:51.265Z,12048
2016-09-21T12:47:50.124Z,11932
2016-09-21T12:48:51.595Z,11804
2016-09-21T12:49:51.815Z,11692
2016-09-21T12:50:53.222Z,11664
2016-09-21T12:51:51.509Z,11700
2016-09-21T12:52:50.752Z,11884
2016-09-21T12:53:52.019Z,12044
2016-09-21T12:54:50.852Z,12040
2016-09-21T12:55:50.851Z,12000
2016-09-21T12:56:51.762Z,11920
2016-09-21T12:57:51.880Z,11884
2016-09-21T12:58:51.542Z,11888
2016-09-21T12:59:51.767Z,11980
2016-09-21T13:00:50.751Z,11968
2016-09-21T13:01:51.615Z,11948
2016-09-21T13:02:52.050Z,11996
2016-09-21T13:03:51.537Z,12092
2016-09-21T13:04:52.476Z,12064
2016-09-21T13:05:51.600Z,11952
2016-09-21T13:06:52.046Z,11832
2016-09-21T13:07:51.744Z,11788
2016-09-21T13:08:52.222Z,11932
2016-09-21T13:09:51.481Z,12048
2016-09-21T13:10:52.016Z,11968
2016-09-21T13:11:52.411Z,11724
2016-09-21T13:12:52.481Z,11492
2016-09-21T13:13:51.568Z,11232
2016-09-21T13:14:51.485Z,11040
2016-09-21T13:15:52.939Z,10996
2016-09-21T13:16:51.732Z,11004
2016-09-21T13:17:52.871Z,10896
2016-09-21T13:18:53.272Z,10748
2016-09-21T13:19:53.120Z,10700
2016-09-21T13:20:51.893Z,10660
2016-09-21T13:21:52.503Z,10656
2016-09-21T13:22:52.045Z,10604
2016-09-21T13:23:52.165Z,10532
2016-09-21T13:24:52.008Z,10460
2016-09-21T13:25:51.898Z,10400
2016-09-21T13:26:52.448Z,10380
2016-09-21T13:27:52.422Z,10340
2016-09-21T13:28:52.472Z,10376
2016-09-21T13:29:53.512Z,10396
2016-09-21T13:30:52.920Z,10404
2016-09-21T13:31:52.059Z,10368
2016-09-21T13:32:51.637Z,10320
2016-09-21T13:33:52.207Z,10296
2016-09-21T13:34:52.342Z,10260
2016-09-21T13:35:52.251Z,10184
2016-09-21T13:36:53.365Z,10120
2016-09-21T13:37:52.471Z,10068
2016-09-21T13:38:52.767Z,10056
2016-09-21T13:39:53.077Z,10040
2016-09-21T13:40:52.476Z,10036
2016-09-21T13:41:53.539Z,10052
2016-09-21T13:42:53.324Z,10004
2016-09-21T13:43:53.497Z,9984